Time;durP1;ratioP1;P1;durP2;ratioP2;P2;SDS_P1;SDS_P2;PMS_P1;PMS_P2;Temp;Humidity;BMP_temperature;BMP_pressure;BME280_temperature;BME280_humidity;BME280_pressure;Samples;Min_cycle;Max_cycle;Signal;HPM_P1;HPM_P2
2022/11/13 00:02:11;;;;;;;33.70;18.30;;;5.80;99.90;;;;;;4993758;28;20491;-77
2022/11/13 00:04:36;;;;;;;29.90;18.52;;;5.90;99.90;;;;;;4993741;28;20065;-77
2022/11/13 00:07:02;;;;;;;31.63;18.70;;;5.80;99.90;;;;;;4993595;28;20026;-77
2022/11/13 00:09:27;;;;;;;28.58;17.75;;;5.70;99.90;;;;;;4993006;28;20465;-77
2022/11/13 00:11:53;;;;;;;27.15;18.55;;;5.70;99.90;;;;;;4993486;28;20049;-77
2022/11/13 00:14:19;;;;;;;29.33;17.70;;;5.80;99.90;;;;;;4993277;28;20052;-77
2022/11/13 00:16:44;;;;;;;30.67;19.48;;;5.70;99.90;;;;;;4993434;28;20061;-77
2022/11/13 00:19:10;;;;;;;33.63;18.85;;;5.80;99.90;;;;;;4993308;28;20037;-77
2022/11/13 00:21:35;;;;;;;30.20;18.13;;;5.80;99.90;;;;;;5004604;28;20030;-77
2022/11/13 00:24:01;;;;;;;33.30;20.15;;;6.00;99.90;;;;;;5011657;28;20072;-77
2022/11/13 00:26:29;;;;;;;31.15;19.65;;;6.00;99.90;;;;;;5012793;28;20022;-77
2022/11/13 00:28:57;;;;;;;32.08;19.48;;;6.10;99.90;;;;;;5012854;28;20042;-77
2022/11/13 00:31:22;;;;;;;30.30;19.17;;;6.10;99.90;;;;;;5012791;28;20033;-77
2022/11/13 00:33:48;;;;;;;35.05;19.20;;;6.20;99.90;;;;;;5012929;28;20026;-77
2022/11/13 00:36:17;;;;;;;29.48;18.27;;;6.30;99.90;;;;;;5012733;28;20101;-77
2022/11/13 00:38:43;;;;;;;28.17;17.58;;;6.30;99.90;;;;;;4993051;28;20026;-77
2022/11/13 00:41:09;;;;;;;28.33;18.50;;;6.20;99.90;;;;;;4993046;28;20491;-77
2022/11/13 00:43:34;;;;;;;31.00;18.95;;;6.20;99.90;;;;;;4993112;28;20028;-76
2022/11/13 00:46:00;;;;;;;28.20;19.05;;;6.10;99.90;;;;;;4992912;28;20110;-76
2022/11/13 00:48:25;;;;;;;27.83;18.40;;;6.10;99.90;;;;;;4993016;28;20381;-77
2022/11/13 00:50:52;;;;;;;31.55;19.20;;;6.10;99.90;;;;;;4992918;28;20023;-77
2022/11/13 00:53:17;;;;;;;29.65;18.38;;;6.10;99.90;;;;;;4992874;28;20028;-77
2022/11/13 00:55:44;;;;;;;28.33;18.38;;;6.10;99.90;;;;;;4993066;28;20022;-77
2022/11/13 00:58:14;;;;;;;30.02;17.48;;;6.10;99.90;;;;;;4992881;28;20069;-77
2022/11/13 01:00:41;;;;;;;30.95;18.02;;;6.10;99.90;;;;;;4992818;28;20078;-77
2022/11/13 01:03:07;;;;;;;25.90;17.60;;;6.00;99.90;;;;;;4992702;28;20105;-77
2022/11/13 01:05:42;;;;;;;32.38;17.58;;;6.00;99.90;;;;;;4992825;28;20130;-76
2022/11/13 01:08:09;;;;;;;31.92;19.33;;;6.00;99.90;;;;;;5000448;28;20424;-77
2022/11/13 01:10:40;;;;;;;32.08;19.20;;;6.00;99.90;;;;;;5012400;28;20030;-76
2022/11/13 01:13:05;;;;;;;28.40;17.90;;;6.20;99.90;;;;;;5012212;28;20030;-76
2022/11/13 01:15:31;;;;;;;29.60;19.38;;;6.10;99.90;;;;;;5012189;28;20544;-76
2022/11/13 01:17:56;;;;;;;29.33;18.23;;;6.20;99.90;;;;;;5012183;28;20022;-77
2022/11/13 01:20:23;;;;;;;31.90;18.88;;;6.10;99.90;;;;;;5013604;28;20133;-77
2022/11/13 01:22:49;;;;;;;29.85;19.15;;;6.10;99.90;;;;;;5016167;28;20033;-77
2022/11/13 01:25:17;;;;;;;28.02;19.33;;;6.20;99.90;;;;;;5016422;28;20467;-77
2022/11/13 01:27:43;;;;;;;30.90;18.60;;;6.20;99.90;;;;;;5016224;28;20057;-77
2022/11/13 01:30:09;;;;;;;29.10;17.98;;;6.10;99.90;;;;;;5016221;28;20045;-77
2022/11/13 01:32:35;;;;;;;30.23;17.88;;;6.10;99.90;;;;;;5015989;28;20092;-77
2022/11/13 01:35:01;;;;;;;29.17;18.73;;;6.00;99.90;;;;;;5016248;28;20141;-77
2022/11/13 01:37:27;;;;;;;31.75;18.05;;;6.20;99.90;;;;;;5016189;28;20033;-77
2022/11/13 01:39:52;;;;;;;26.75;16.88;;;6.10;99.90;;;;;;4997526;28;20038;-77
2022/11/13 01:42:18;;;;;;;26.92;16.55;;;6.10;99.90;;;;;;4996462;28;20469;-77
2022/11/13 01:44:49;;;;;;;25.90;17.48;;;6.00;99.90;;;;;;4996443;28;20018;-77
2022/11/13 01:47:15;;;;;;;27.38;16.52;;;6.00;99.90;;;;;;4996224;28;20062;-77
2022/11/13 01:49:42;;;;;;;24.63;16.88;;;6.00;99.90;;;;;;4996249;28;20093;-77
2022/11/13 01:52:21;;;;;;;22.98;16.98;;;5.90;99.90;;;;;;4996084;28;20026;-77
2022/11/13 01:54:55;;;;;;;24.38;15.93;;;5.90;99.90;;;;;;4996310;28;20026;-77
2022/11/13 01:57:22;;;;;;;23.13;16.27;;;5.90;99.90;;;;;;4996266;28;20022;-77
2022/11/13 01:59:52;;;;;;;24.88;16.90;;;5.80;99.90;;;;;;4995997;28;20081;-77
2022/11/13 02:02:17;;;;;;;22.92;15.75;;;5.80;99.90;;;;;;4996264;28;20038;-77
2022/11/13 02:04:43;;;;;;;21.83;15.25;;;5.80;99.90;;;;;;4996162;28;20077;-77
2022/11/13 02:07:15;;;;;;;22.90;15.48;;;5.70;99.90;;;;;;4996297;28;20354;-77
2022/11/13 02:09:47;;;;;;;20.70;14.70;;;5.70;99.90;;;;;;4996054;28;20093;-77
2022/11/13 02:12:15;;;;;;;22.08;14.55;;;5.70;99.90;;;;;;4995944;28;20113;-77
2022/11/13 02:14:52;;;;;;;24.52;15.23;;;5.60;99.90;;;;;;4995503;28;20129;-77
2022/11/13 02:17:29;;;;;;;23.77;14.15;;;5.60;99.90;;;;;;4995594;28;20034;-77
2022/11/13 02:19:58;;;;;;;22.77;14.65;;;5.70;99.90;;;;;;4995517;28;20420;-77
2022/11/13 02:22:34;;;;;;;24.13;14.43;;;5.70;99.90;;;;;;4995747;28;20869;-77
2022/11/13 02:25:02;;;;;;;20.80;13.38;;;5.80;99.90;;;;;;4995703;28;20109;-77
2022/11/13 02:27:47;;;;;;;22.25;13.52;;;5.80;99.90;;;;;;5014494;28;20461;-77
2022/11/13 02:30:18;;;;;;;22.10;14.40;;;5.70;99.90;;;;;;5015044;28;20523;-77
2022/11/13 02:32:46;;;;;;;20.67;13.98;;;5.70;99.90;;;;;;5014161;28;20368;-77
2022/11/13 02:35:14;;;;;;;21.10;14.35;;;5.70;99.90;;;;;;5014911;28;20026;-77
2022/11/13 02:37:41;;;;;;;22.67;14.90;;;5.60;99.90;;;;;;5015035;28;20022;-77
2022/11/13 02:40:07;;;;;;;23.20;15.13;;;5.60;99.90;;;;;;5010167;28;20544;-77
2022/11/13 02:42:32;;;;;;;20.63;14.48;;;5.60;99.90;;;;;;5028965;28;20079;-77
2022/11/13 02:44:58;;;;;;;22.33;15.18;;;5.70;99.90;;;;;;5034555;28;20443;-77
2022/11/13 02:47:24;;;;;;;23.92;15.80;;;5.80;99.90;;;;;;5034512;28;20419;-77
2022/11/13 02:49:49;;;;;;;22.55;14.90;;;5.70;99.90;;;;;;5034460;28;20026;-77
2022/11/13 02:52:15;;;;;;;20.08;14.70;;;5.80;99.90;;;;;;5034455;28;20459;-77
2022/11/13 02:54:40;;;;;;;22.33;15.20;;;5.80;99.90;;;;;;5025261;28;20482;-77
2022/11/13 02:57:06;;;;;;;22.92;14.80;;;5.80;99.90;;;;;;5014554;28;20033;-77
2022/11/13 02:59:31;;;;;;;23.35;15.13;;;5.90;99.90;;;;;;5014230;28;20026;-77
2022/11/13 03:01:57;;;;;;;22.60;15.18;;;5.90;99.90;;;;;;5014361;28;20030;-77
2022/11/13 03:04:23;;;;;;;24.23;16.67;;;5.90;99.90;;;;;;5014392;28;20069;-77
2022/11/13 03:06:48;;;;;;;25.33;17.02;;;6.00;99.90;;;;;;5014391;28;20037;-77
2022/11/13 03:09:14;;;;;;;23.38;16.00;;;6.00;99.90;;;;;;5014346;28;20492;-77
2022/11/13 03:11:39;;;;;;;26.05;17.48;;;6.00;99.90;;;;;;5014352;28;20364;-77
2022/11/13 03:14:05;;;;;;;27.83;17.73;;;6.10;99.90;;;;;;5014206;28;20451;-77
2022/11/13 03:16:30;;;;;;;25.85;16.65;;;6.10;99.20;;;;;;5013815;28;20221;-77
2022/11/13 03:18:56;;;;;;;26.35;16.27;;;6.00;93.90;;;;;;5014175;28;20029;-76
2022/11/13 03:21:22;;;;;;;26.33;16.77;;;5.90;79.80;;;;;;5014253;28;20444;-77
2022/11/13 03:23:48;;;;;;;27.35;17.27;;;6.00;50.40;;;;;;5014192;28;20113;-77
2022/11/13 03:26:15;;;;;;;23.75;16.83;;;5.90;23.90;;;;;;5014523;28;20081;-77
2022/11/13 03:28:41;;;;;;;24.67;17.35;;;6.00;21.90;;;;;;5014538;28;20058;-77
2022/11/13 03:31:10;;;;;;;28.15;16.52;;;6.00;10.60;;;;;;5014375;28;20033;-78
2022/11/13 03:33:36;;;;;;;25.98;16.95;;;6.00;10.10;;;;;;5014434;28;20018;-77
2022/11/13 03:36:02;;;;;;;25.13;16.60;;;6.10;9.30;;;;;;5014109;28;20025;-77
2022/11/13 03:38:27;;;;;;;25.95;16.58;;;6.00;1.00;;;;;;5013909;28;20372;-77
2022/11/13 03:40:53;;;;;;;25.70;16.02;;;6.00;1.00;;;;;;5008813;28;20109;-77
2022/11/13 03:43:19;;;;;;;20.58;14.60;;;6.00;1.00;;;;;;4994402;28;20030;-77
2022/11/13 03:45:46;;;;;;;24.15;16.05;;;6.00;1.00;;;;;;4994439;28;20022;-77
2022/11/13 03:48:14;;;;;;;25.42;16.90;;;6.00;1.00;;;;;;4994615;28;20061;-78
2022/11/13 03:50:44;;;;;;;25.73;16.55;;;6.20;1.00;;;;;;4996997;28;20661;-78
2022/11/13 03:53:10;;;;;;;23.10;15.50;;;6.20;1.00;;;;;;4995281;28;20026;-77
2022/11/13 03:55:35;;;;;;;30.63;16.90;;;6.30;1.00;;;;;;4994181;28;20523;-77
2022/11/13 03:58:01;;;;;;;24.10;17.73;;;6.20;1.00;;;;;;4994222;28;20027;-77
2022/11/13 04:00:29;;;;;;;25.10;17.45;;;6.30;1.00;;;;;;4994181;28;20026;-78
2022/11/13 04:02:54;;;;;;;26.95;17.75;;;6.30;1.00;;;;;;5006183;28;20459;-77
2022/11/13 04:05:21;;;;;;;25.73;16.25;;;6.30;1.00;;;;;;5013783;28;20108;-77
2022/11/13 04:07:47;;;;;;;26.80;16.33;;;6.30;1.00;;;;;;5002121;28;20045;-77
2022/11/13 04:10:12;;;;;;;26.83;16.38;;;6.20;1.00;;;;;;4999380;28;20668;-77
2022/11/13 04:12:38;;;;;;;25.52;16.48;;;6.20;1.00;;;;;;5013479;28;20033;-77
2022/11/13 04:15:05;;;;;;;25.95;16.63;;;6.20;1.00;;;;;;5013276;28;20056;-77
2022/11/13 04:17:30;;;;;;;22.23;14.65;;;6.30;1.00;;;;;;5013572;28;20121;-77
2022/11/13 04:19:56;;;;;;;23.40;16.05;;;6.20;1.00;;;;;;5013607;28;20113;-77
2022/11/13 04:22:21;;;;;;;22.98;15.20;;;6.10;1.00;;;;;;5013519;28;20350;-77
2022/11/13 04:24:47;;;;;;;25.30;16.10;;;6.10;1.00;;;;;;5013378;28;20022;-77
2022/11/13 04:27:12;;;;;;;21.70;15.05;;;6.10;1.00;;;;;;5013009;28;20029;-77
2022/11/13 04:29:38;;;;;;;21.58;13.77;;;6.00;1.00;;;;;;5013112;28;20057;-77
2022/11/13 04:32:04;;;;;;;20.20;14.80;;;6.00;1.00;;;;;;5013059;28;20026;-77
2022/11/13 04:34:29;;;;;;;26.25;15.20;;;6.00;1.00;;;;;;4994625;28;20023;-77
2022/11/13 04:36:55;;;;;;;21.95;14.10;;;5.90;1.00;;;;;;4993330;28;20030;-77
2022/11/13 04:39:20;;;;;;;22.83;14.35;;;5.90;1.00;;;;;;4993775;28;20023;-77
2022/11/13 04:44:30;;;;;;;23.15;14.65;;;6.00;1.00;;;;;;4994235;28;20120;-77
2022/11/13 04:46:56;;;;;;;23.60;14.98;;;6.00;99.90;;;;;;4993569;28;20026;-77
2022/11/13 04:49:21;;;;;;;19.65;14.18;;;5.90;99.90;;;;;;4993449;28;20585;-77
2022/11/13 04:51:47;;;;;;;17.77;12.73;;;5.80;99.90;;;;;;4993103;28;20022;-77
2022/11/13 04:54:13;;;;;;;20.05;13.93;;;5.70;99.90;;;;;;4993204;28;20023;-77
2022/11/13 04:56:38;;;;;;;21.70;14.07;;;5.70;99.90;;;;;;4998958;28;20022;-77
2022/11/13 04:59:04;;;;;;;22.33;13.80;;;5.70;99.90;;;;;;4999488;28;20069;-77
2022/11/13 05:01:29;;;;;;;21.05;14.60;;;5.70;99.90;;;;;;4999742;28;20033;-77
2022/11/13 05:03:55;;;;;;;23.63;14.80;;;5.70;99.90;;;;;;5000300;28;20035;-77
2022/11/13 05:06:20;;;;;;;22.30;13.95;;;5.60;99.90;;;;;;5000195;28;20030;-77
2022/11/13 05:08:46;;;;;;;22.50;14.43;;;5.60;99.90;;;;;;4999975;28;20027;-77
2022/11/13 05:11:12;;;;;;;25.60;14.65;;;5.70;1.00;;;;;;4999787;28;20680;-77
2022/11/13 05:13:37;;;;;;;22.00;14.50;;;5.70;1.00;;;;;;4999880;28;20105;-77
2022/11/13 05:16:08;;;;;;;21.75;14.38;;;5.70;1.00;;;;;;4999527;28;20050;-77
2022/11/13 05:18:36;;;;;;;21.98;14.98;;;5.80;1.00;;;;;;5007037;28;20036;-77
2022/11/13 05:21:02;;;;;;;22.90;15.05;;;5.70;1.00;;;;;;5019252;28;20040;-77
2022/11/13 05:23:28;;;;;;;28.15;14.18;;;5.70;1.00;;;;;;5019276;28;20014;-77
2022/11/13 05:26:01;;;;;;;22.23;15.38;;;5.70;1.00;;;;;;5019002;28;20547;-77
2022/11/13 05:28:26;;;;;;;21.73;15.80;;;5.70;1.00;;;;;;5020513;28;20365;-77
2022/11/13 05:30:52;;;;;;;25.63;15.90;;;5.70;99.90;;;;;;5019546;28;20030;-77
2022/11/13 05:33:17;;;;;;;26.75;16.33;;;5.70;99.90;;;;;;5010427;28;20101;-77
2022/11/13 05:35:43;;;;;;;30.60;17.45;;;5.70;99.90;;;;;;4999364;28;20026;-77
2022/11/13 05:38:09;;;;;;;24.17;16.08;;;5.80;99.90;;;;;;4999196;28;20026;-77
2022/11/13 05:40:34;;;;;;;24.55;16.77;;;5.70;99.90;;;;;;4999910;28;20026;-78
2022/11/13 05:43:00;;;;;;;25.48;17.33;;;5.80;99.90;;;;;;5000118;28;20150;-77
2022/11/13 05:45:25;;;;;;;25.42;16.70;;;5.80;99.90;;;;;;4999510;28;20021;-77
2022/11/13 05:47:51;;;;;;;25.23;16.38;;;5.80;99.90;;;;;;4999521;28;20101;-77
2022/11/13 05:50:16;;;;;;;25.98;15.98;;;5.80;99.90;;;;;;4999144;28;20039;-77
2022/11/13 05:52:42;;;;;;;26.38;16.60;;;5.90;99.90;;;;;;4999159;28;20033;-77
2022/11/13 05:55:08;;;;;;;26.08;16.77;;;5.90;99.90;;;;;;4999139;28;20421;-77
2022/11/13 05:57:33;;;;;;;25.63;16.35;;;5.80;99.90;;;;;;4998870;28;20030;-77
2022/11/13 05:59:59;;;;;;;23.92;16.45;;;5.70;99.90;;;;;;4998955;28;20027;-77
2022/11/13 06:02:25;;;;;;;24.30;16.08;;;5.70;99.90;;;;;;4999289;28;20026;-77
2022/11/13 06:04:50;;;;;;;25.90;16.88;;;5.80;1.00;;;;;;4999112;28;20076;-77
2022/11/13 06:07:16;;;;;;;25.90;16.58;;;5.80;1.00;;;;;;4995964;28;20030;-77
2022/11/13 06:09:41;;;;;;;25.20;17.05;;;5.90;1.00;;;;;;5003967;28;20021;-77
2022/11/13 06:12:07;;;;;;;26.92;17.58;;;5.80;99.90;;;;;;5015384;28;20153;-77
2022/11/13 06:14:32;;;;;;;29.77;17.52;;;5.90;99.90;;;;;;5015221;28;20054;-77
2022/11/13 06:16:58;;;;;;;24.60;16.70;;;5.90;99.90;;;;;;5015264;28;20471;-77
2022/11/13 06:19:23;;;;;;;29.30;18.55;;;5.80;99.90;;;;;;5015172;28;20029;-77
2022/11/13 06:21:49;;;;;;;30.73;17.92;;;5.90;99.90;;;;;;5015352;28;20483;-77
2022/11/13 06:24:15;;;;;;;25.38;16.92;;;5.90;99.90;;;;;;5015265;28;20024;-77
2022/11/13 06:26:40;;;;;;;26.10;17.05;;;5.80;99.90;;;;;;5015134;28;20578;-77
2022/11/13 06:29:09;;;;;;;28.10;16.73;;;5.80;99.90;;;;;;5015201;28;20049;-77
2022/11/13 06:31:35;;;;;;;26.70;17.17;;;5.80;99.90;;;;;;5015422;28;20028;-77
2022/11/13 06:34:02;;;;;;;29.25;17.42;;;5.80;99.90;;;;;;5015072;28;20026;-77
2022/11/13 06:36:33;;;;;;;27.58;17.02;;;5.80;99.90;;;;;;4995460;28;20022;-77
2022/11/13 06:38:59;;;;;;;30.73;17.08;;;5.90;99.90;;;;;;4995397;28;20023;-77
2022/11/13 06:41:28;;;;;;;26.15;16.45;;;5.90;99.90;;;;;;4995544;28;20050;-77
2022/11/13 06:43:54;;;;;;;28.13;18.23;;;5.90;99.90;;;;;;4998962;28;20028;-76
2022/11/13 06:46:23;;;;;;;27.13;17.92;;;5.80;99.90;;;;;;5005502;28;20022;-76
2022/11/13 06:48:49;;;;;;;26.63;16.77;;;5.80;99.90;;;;;;5008500;28;20042;-76
2022/11/13 06:51:18;;;;;;;26.80;17.30;;;5.80;99.90;;;;;;5003616;28;20104;-76
2022/11/13 06:53:44;;;;;;;27.63;15.95;;;5.80;99.90;;;;;;4994833;28;20031;-76
2022/11/13 06:56:10;;;;;;;25.95;16.45;;;5.70;99.90;;;;;;4995003;28;20029;-75
2022/11/13 06:58:36;;;;;;;25.05;16.27;;;5.60;99.90;;;;;;4994822;28;20018;-76
2022/11/13 07:01:22;;;;;;;27.05;17.60;;;5.70;99.90;;;;;;4994812;28;20476;-76
2022/11/13 07:03:48;;;;;;;25.95;16.75;;;5.60;99.90;;;;;;4996143;28;20053;-76
2022/11/13 07:06:16;;;;;;;26.17;16.58;;;5.60;99.90;;;;;;5011679;28;20045;-75
2022/11/13 07:08:42;;;;;;;25.38;16.38;;;5.60;99.90;;;;;;4994552;28;20030;-76
2022/11/13 07:11:16;;;;;;;26.20;16.80;;;5.60;99.90;;;;;;4994632;28;20366;-76
2022/11/13 07:13:42;;;;;;;24.98;15.35;;;5.60;99.90;;;;;;4995073;28;20034;-76
2022/11/13 07:16:09;;;;;;;21.67;14.35;;;5.60;99.90;;;;;;4994741;28;20246;-76
2022/11/13 07:18:35;;;;;;;25.65;15.95;;;5.60;99.90;;;;;;4995756;28;20026;-76
2022/11/13 07:21:08;;;;;;;23.05;16.60;;;5.60;99.90;;;;;;5001158;28;20029;-76
2022/11/13 07:23:44;;;;;;;26.42;16.95;;;5.70;99.90;;;;;;5015513;28;20076;-76
2022/11/13 07:26:10;;;;;;;26.90;16.23;;;5.80;99.90;;;;;;5015318;28;20507;-76
2022/11/13 07:28:36;;;;;;;24.92;15.70;;;5.70;99.90;;;;;;5013997;28;20022;-76
2022/11/13 07:31:02;;;;;;;23.20;15.50;;;5.70;99.90;;;;;;5013793;28;20037;-76
2022/11/13 07:33:28;;;;;;;22.73;15.35;;;5.80;99.90;;;;;;5013773;28;20018;-76
2022/11/13 07:35:56;;;;;;;31.95;18.35;;;5.70;99.90;;;;;;5013781;28;20022;-76
2022/11/13 07:38:22;;;;;;;26.33;17.65;;;5.90;99.90;;;;;;5013684;28;20026;-76
2022/11/13 07:40:48;;;;;;;27.50;17.25;;;5.90;99.90;;;;;;5013625;28;20026;-76
2022/11/13 07:43:14;;;;;;;24.70;16.83;;;6.10;99.90;;;;;;5013470;28;20112;-76
2022/11/13 07:45:40;;;;;;;24.83;15.52;;;6.20;99.90;;;;;;5013702;28;20105;-76
2022/11/13 07:48:06;;;;;;;26.33;16.80;;;6.30;99.90;;;;;;5013667;28;20101;-77
2022/11/13 07:50:34;;;;;;;26.23;16.98;;;6.30;99.90;;;;;;5013597;28;20092;-76
2022/11/13 07:53:02;;;;;;;25.83;17.33;;;6.40;99.90;;;;;;5013608;28;20018;-76
2022/11/13 07:55:28;;;;;;;26.73;17.08;;;6.70;99.90;;;;;;5013405;28;20109;-76
2022/11/13 07:57:58;;;;;;;26.00;17.45;;;7.20;99.90;;;;;;5013382;28;20109;-76
2022/11/13 08:00:28;;;;;;;27.08;17.42;;;8.70;99.90;;;;;;5013383;28;20026;-76
2022/11/13 08:02:54;;;;;;;24.45;16.42;;;10.80;1.00;;;;;;5013229;28;20030;-76
2022/11/13 08:05:20;;;;;;;25.45;16.38;;;12.80;1.00;;;;;;5013349;28;20457;-76
2022/11/13 08:07:47;;;;;;;20.65;15.70;;;13.80;1.00;;;;;;4993541;28;20559;-76
2022/11/13 08:10:13;;;;;;;22.98;14.93;;;15.40;1.00;;;;;;4995923;28;20061;-76
2022/11/13 08:12:38;;;;;;;21.17;14.70;;;16.80;1.00;;;;;;4991893;28;20057;-76
2022/11/13 08:15:04;;;;;;;18.52;13.23;;;15.90;1.00;;;;;;4997776;28;20093;-76
2022/11/13 08:17:30;;;;;;;19.52;13.13;;;15.50;1.00;;;;;;4992027;28;20030;-76
2022/11/13 08:19:56;;;;;;;19.10;13.52;;;13.30;1.00;;;;;;4991458;28;20033;-76
2022/11/13 08:22:21;;;;;;;17.25;13.40;;;11.80;1.00;;;;;;4990489;28;20080;-76
2022/11/13 08:24:47;;;;;;;17.33;13.32;;;10.20;1.00;;;;;;4992936;28;20085;-77
2022/11/13 08:27:12;;;;;;;18.70;13.57;;;9.80;1.00;;;;;;4992073;28;20026;-77
2022/11/13 08:29:38;;;;;;;17.77;12.35;;;10.00;1.00;;;;;;4993422;28;20032;-77
2022/11/13 08:32:04;;;;;;;16.95;12.32;;;10.00;1.00;;;;;;5002995;28;20550;-77
2022/11/13 08:34:29;;;;;;;17.95;13.15;;;9.70;1.00;;;;;;5007465;28;20018;-76
2022/11/13 08:36:55;;;;;;;16.15;12.82;;;9.60;1.00;;;;;;4999165;28;20393;-77
2022/11/13 08:39:20;;;;;;;16.35;13.07;;;9.40;1.00;;;;;;5001022;28;20057;-77
2022/11/13 08:41:46;;;;;;;17.88;13.45;;;9.30;1.00;;;;;;5000268;28;20030;-77
2022/11/13 08:44:13;;;;;;;17.98;13.05;;;9.10;1.00;;;;;;5008652;28;20083;-77
2022/11/13 08:46:38;;;;;;;16.40;12.32;;;9.00;1.00;;;;;;4995165;28;20018;-76
2022/11/13 08:49:04;;;;;;;19.48;12.80;;;9.00;1.00;;;;;;4996950;28;20034;-76
2022/11/13 08:51:30;;;;;;;17.88;13.27;;;9.00;1.00;;;;;;4995461;28;20484;-75
2022/11/13 08:53:55;;;;;;;21.08;13.75;;;9.00;1.00;;;;;;4992944;28;20054;-75
2022/11/13 08:56:21;;;;;;;18.92;13.93;;;9.00;1.00;;;;;;4992742;28;20034;-75
2022/11/13 08:58:47;;;;;;;20.63;13.65;;;8.90;1.00;;;;;;4992700;28;20037;-75
2022/11/13 09:01:12;;;;;;;17.83;13.45;;;8.90;1.00;;;;;;4992836;28;20026;-75
2022/11/13 09:03:38;;;;;;;21.25;13.63;;;9.10;1.00;;;;;;4992677;28;20022;-75
2022/11/13 09:06:07;;;;;;;18.05;14.02;;;9.20;1.00;;;;;;4992795;28;20025;-76
2022/11/13 09:08:33;;;;;;;19.95;13.82;;;9.30;1.00;;;;;;4995639;28;20030;-76
2022/11/13 09:11:04;;;;;;;18.33;12.48;;;9.40;1.00;;;;;;4998847;28;20563;-77
2022/11/13 09:13:30;;;;;;;18.27;13.70;;;9.40;1.00;;;;;;5008067;28;20022;-76
2022/11/13 09:16:00;;;;;;;16.38;12.80;;;9.50;1.00;;;;;;4998788;28;20096;-77
2022/11/13 09:18:27;;;;;;;19.15;13.80;;;9.60;1.00;;;;;;5000562;28;20037;-76
2022/11/13 09:20:53;;;;;;;18.88;13.07;;;9.50;1.00;;;;;;4999902;28;20058;-76
2022/11/13 09:23:19;;;;;;;19.70;12.95;;;9.70;1.00;;;;;;4991873;28;20109;-76
2022/11/13 09:25:45;;;;;;;17.38;13.13;;;9.80;1.00;;;;;;4995213;28;20105;-76
2022/11/13 09:28:11;;;;;;;15.02;12.75;;;10.00;1.00;;;;;;5001483;28;20233;-76
2022/11/13 09:30:38;;;;;;;18.10;13.18;;;10.00;1.00;;;;;;5000830;28;20037;-76
2022/11/13 09:33:04;;;;;;;18.42;11.90;;;10.10;1.00;;;;;;4996197;28;20094;-76
2022/11/13 09:35:34;;;;;;;17.52;13.60;;;10.10;1.00;;;;;;4991357;28;20046;-76
2022/11/13 09:38:00;;;;;;;16.33;12.65;;;10.20;1.00;;;;;;4996279;28;20029;-76
2022/11/13 09:40:32;;;;;;;16.13;11.63;;;10.20;1.00;;;;;;4999107;28;20038;-77
2022/11/13 09:43:00;;;;;;;16.52;12.68;;;10.10;1.00;;;;;;5003642;28;20061;-77
2022/11/13 09:45:26;;;;;;;15.32;11.25;;;10.00;1.00;;;;;;5015619;28;20032;-76
2022/11/13 09:47:53;;;;;;;15.27;11.63;;;10.00;1.00;;;;;;5015813;28;20030;-77
2022/11/13 09:50:26;;;;;;;16.27;12.82;;;10.00;1.00;;;;;;5015674;28;20022;-77
2022/11/13 09:52:52;;;;;;;15.25;12.63;;;10.00;1.00;;;;;;4999998;28;20057;-77
2022/11/13 09:55:23;;;;;;;16.58;12.15;;;10.00;1.00;;;;;;4999716;28;20029;-77
2022/11/13 09:58:01;;;;;;;16.35;12.40;;;10.00;1.00;;;;;;5004351;28;20648;-77
2022/11/13 10:00:28;;;;;;;16.67;12.43;;;10.00;1.00;;;;;;4996742;28;20034;-76
2022/11/13 10:03:18;;;;;;;16.58;11.82;;;10.00;1.00;;;;;;4998912;28;20022;-76
2022/11/13 10:05:55;;;;;;;16.88;11.95;;;10.10;1.00;;;;;;4997415;28;20041;-76
2022/11/13 10:08:44;;;;;;;17.05;11.95;;;10.20;1.00;;;;;;5002304;28;20030;-76
2022/11/13 10:11:47;;;;;;;15.82;11.73;;;10.20;1.00;;;;;;4998893;28;20029;-76
2022/11/13 10:14:24;;;;;;;15.35;12.18;;;10.40;1.00;;;;;;4997151;28;20033;-76
2022/11/13 10:17:31;;;;;;;16.23;11.93;;;10.50;1.00;;;;;;5005728;28;20025;-76
2022/11/13 10:20:27;;;;;;;14.90;11.65;;;10.60;1.00;;;;;;5012588;28;20072;-76
2022/11/13 10:22:54;;;;;;;18.77;12.10;;;10.70;1.00;;;;;;4997119;28;20420;-76
2022/11/13 10:25:27;;;;;;;12.90;10.85;;;10.90;1.00;;;;;;5004090;28;20038;-76
2022/11/13 10:27:56;;;;;;;16.45;11.43;;;10.70;1.00;;;;;;5004081;28;20472;-76
2022/11/13 10:30:22;;;;;;;16.35;11.05;;;10.80;1.00;;;;;;5004297;28;20029;-75
2022/11/13 10:32:49;;;;;;;14.93;11.45;;;10.80;1.00;;;;;;5015209;28;20101;-76
2022/11/13 10:35:49;;;;;;;17.45;12.15;;;11.00;1.00;;;;;;5014988;28;20033;-76
2022/11/13 10:38:57;;;;;;;18.08;10.77;;;10.90;1.00;;;;;;5014826;28;20376;-76
2022/11/13 10:41:22;;;;;;;17.80;12.15;;;10.90;1.00;;;;;;4962793;28;20047;-76
2022/11/13 10:43:54;;;;;;;14.02;10.18;;;10.90;1.00;;;;;;4957827;28;20514;-76
2022/11/13 10:46:28;;;;;;;14.23;10.90;;;10.90;1.00;;;;;;4980866;28;20038;-76
2022/11/13 10:48:58;;;;;;;15.00;10.60;;;10.90;1.00;;;;;;5003063;28;20505;-76
2022/11/13 10:51:27;;;;;;;14.00;10.35;;;11.10;1.00;;;;;;5002954;28;20034;-76
2022/11/13 10:53:54;;;;;;;14.82;11.13;;;11.20;1.00;;;;;;5000328;28;20034;-76
2022/11/13 10:56:34;;;;;;;14.43;11.30;;;11.40;1.00;;;;;;5000415;28;20100;-76
2022/11/13 10:59:14;;;;;;;13.90;10.60;;;11.60;1.00;;;;;;5006149;28;20026;-76
2022/11/13 11:01:41;;;;;;;13.43;10.13;;;11.70;1.00;;;;;;5002775;28;20653;-76
2022/11/13 11:04:13;;;;;;;13.85;10.18;;;11.80;1.00;;;;;;4995947;28;20112;-76
2022/11/13 11:06:40;;;;;;;13.45;10.38;;;11.90;1.00;;;;;;5001414;28;20014;-76
2022/11/13 11:09:28;;;;;;;12.80;10.50;;;12.00;1.00;;;;;;5004117;28;20100;-76
2022/11/13 11:12:17;;;;;;;13.43;10.27;;;12.20;1.00;;;;;;5003705;28;20065;-76
2022/11/13 11:15:03;;;;;;;14.38;10.63;;;12.20;1.00;;;;;;5001921;28;20096;-76
2022/11/13 11:17:49;;;;;;;13.85;9.82;;;12.10;1.00;;;;;;5001764;28;20026;-76
2022/11/13 11:20:33;;;;;;;15.23;10.95;;;12.20;1.00;;;;;;5012595;28;20045;-76
2022/11/13 11:23:20;;;;;;;12.68;10.45;;;12.20;1.00;;;;;;5003106;28;20030;-76
2022/11/13 11:25:49;;;;;;;11.25;9.20;;;12.20;1.00;;;;;;4994267;28;20096;-76
2022/11/13 11:28:39;;;;;;;12.33;10.50;;;12.40;1.00;;;;;;5003959;28;20056;-76
2022/11/13 11:31:16;;;;;;;11.98;9.60;;;12.50;1.00;;;;;;5013876;28;20369;-76
2022/11/13 11:33:56;;;;;;;11.90;9.65;;;12.80;1.00;;;;;;5013824;28;20029;-76
2022/11/13 11:36:33;;;;;;;12.77;9.73;;;13.00;1.00;;;;;;5023469;28;20038;-76
2022/11/13 11:39:12;;;;;;;10.88;8.40;;;13.00;1.00;;;;;;5013496;28;20060;-75
2022/11/13 11:42:19;;;;;;;12.98;9.32;;;13.00;1.00;;;;;;5013767;28;20465;-76
2022/11/13 11:45:15;;;;;;;10.05;8.60;;;13.00;1.00;;;;;;5013678;28;20061;-76
2022/11/13 11:47:41;;;;;;;10.77;8.68;;;13.20;1.00;;;;;;5013720;28;20018;-76
2022/11/13 11:50:13;;;;;;;9.10;7.85;;;13.10;1.00;;;;;;5013791;28;20037;-76
2022/11/13 11:53:23;;;;;;;10.48;7.95;;;13.00;1.00;;;;;;4993793;28;20033;-76
2022/11/13 11:56:07;;;;;;;9.48;7.35;;;13.20;1.00;;;;;;4971928;28;20077;-76
2022/11/13 11:58:39;;;;;;;10.77;8.02;;;13.20;1.00;;;;;;4993726;28;20034;-76
2022/11/13 12:01:19;;;;;;;9.90;8.02;;;13.30;1.00;;;;;;4993688;28;20108;-76
2022/11/13 12:04:19;;;;;;;9.10;7.45;;;13.50;1.00;;;;;;4993541;28;20398;-76
2022/11/13 12:07:01;;;;;;;;;;;13.70;1.00;;;;;;4977981;28;20069;-76
2022/11/13 12:09:40;;;;;;;14.60;8.40;;;13.60;1.00;;;;;;4996708;28;19905;-76
2022/11/13 12:12:20;;;;;;;10.35;7.50;;;13.70;1.00;;;;;;5001291;28;20138;-76
2022/11/13 12:14:55;;;;;;;8.43;7.40;;;13.80;1.00;;;;;;5002834;28;20049;-76
2022/11/13 12:17:36;;;;;;;9.23;7.35;;;13.90;1.00;;;;;;5012923;28;20706;-76
2022/11/13 12:20:28;;;;;;;7.95;7.10;;;14.10;1.00;;;;;;5012133;28;20021;-76
2022/11/13 12:22:56;;;;;;;10.73;7.28;;;14.10;1.00;;;;;;5013006;28;20580;-76
2022/11/13 12:25:53;;;;;;;8.07;6.95;;;14.00;1.00;;;;;;5002096;28;20392;-77
2022/11/13 12:28:46;;;;;;;10.43;7.88;;;14.00;1.00;;;;;;4999776;28;20052;-77
2022/11/13 12:31:18;;;;;;;9.23;7.50;;;14.00;1.00;;;;;;5002807;28;20566;-77
2022/11/13 12:33:58;;;;;;;9.88;7.93;;;14.00;1.00;;;;;;5004900;28;20054;-77
2022/11/13 12:36:24;;;;;;;9.80;8.05;;;14.00;1.00;;;;;;4996511;28;20018;-77
2022/11/13 12:39:10;;;;;;;9.45;8.13;;;13.90;1.00;;;;;;5000355;28;20477;-76
2022/11/13 12:41:48;;;;;;;11.27;7.85;;;13.90;1.00;;;;;;4997327;28;20469;-77
2022/11/13 12:44:23;;;;;;;8.98;7.80;;;13.90;1.00;;;;;;4997461;28;20476;-77
2022/11/13 12:46:51;;;;;;;9.90;7.13;;;13.90;1.00;;;;;;5004297;28;20432;-77
2022/11/13 12:49:22;;;;;;;8.93;7.45;;;13.80;1.00;;;;;;5002884;28;20053;-77
2022/11/13 12:51:57;;;;;;;8.60;6.80;;;13.80;1.00;;;;;;4999734;28;20022;-77
2022/11/13 12:54:30;;;;;;;7.97;6.78;;;13.70;1.00;;;;;;5000656;28;20040;-76
2022/11/13 12:57:16;;;;;;;8.27;6.90;;;13.60;1.00;;;;;;4995261;28;20021;-77